createdAt,value
2023-01-30T00:00:11.428Z,79.73
2023-01-30T00:01:18.680Z,79.44
2023-01-30T00:02:21.865Z,79.55
2023-01-30T00:03:25.508Z,79.01
2023-01-30T00:04:28.469Z,79.10
2023-01-30T00:05:31.425Z,79.65
2023-01-30T00:06:34.684Z,80.04
2023-01-30T00:07:37.671Z,81.56
2023-01-30T00:08:40.702Z,81.28
2023-01-30T00:09:44.538Z,82.13
2023-01-30T00:10:47.984Z,81.92
2023-01-30T00:11:50.983Z,81.41
2023-01-30T00:12:53.949Z,81.02
2023-01-30T00:13:57.332Z,81.88
2023-01-30T00:15:00.301Z,81.41
2023-01-30T00:16:03.989Z,80.75
2023-01-30T00:17:07.163Z,80.70
2023-01-30T00:18:10.338Z,80.15
2023-01-30T00:19:13.451Z,80.59
2023-01-30T00:20:17.643Z,81.15
2023-01-30T00:21:20.776Z,81.41
2023-01-30T00:22:23.788Z,81.35
2023-01-30T00:23:27.773Z,81.07
2023-01-30T00:24:31.268Z,80.88
2023-01-30T00:25:34.564Z,80.31
2023-01-30T00:26:37.731Z,80.28
2023-01-30T00:27:40.787Z,80.68
2023-01-30T00:28:44.114Z,81.06
2023-01-30T00:29:57.730Z,81.29
2023-01-30T00:31:04.903Z,81.89
2023-01-30T00:32:07.941Z,81.27
2023-01-30T00:33:11.184Z,81.22
2023-01-30T00:34:14.425Z,80.63
2023-01-30T00:35:17.433Z,81.16
2023-01-30T00:36:20.535Z,81.92
2023-01-30T00:37:23.691Z,82.25
2023-01-30T00:38:27.060Z,82.06
2023-01-30T00:39:30.103Z,81.77
2023-01-30T00:40:33.224Z,81.89
2023-01-30T00:41:54.772Z,81.96
2023-01-30T00:43:16.528Z,81.74
2023-01-30T00:44:38.003Z,82.10
2023-01-30T00:46:02.335Z,82.85
2023-01-30T00:47:09.370Z,82.88
2023-01-30T00:48:12.455Z,83.04
2023-01-30T00:49:16.069Z,82.52
2023-01-30T00:50:19.201Z,82.18
2023-01-30T00:51:22.308Z,82.14
2023-01-30T00:52:25.432Z,82.41
2023-01-30T00:53:28.737Z,82.19
2023-01-30T00:54:31.916Z,82.25
2023-01-30T00:55:34.871Z,82.26
2023-01-30T00:56:38.454Z,82.06
2023-01-30T00:57:42.097Z,81.62
2023-01-30T00:58:45.118Z,81.67
2023-01-30T00:59:49.634Z,82.59
2023-01-30T01:00:53.349Z,82.48
2023-01-30T01:01:56.547Z,82.03
2023-01-30T01:02:59.956Z,82.08
2023-01-30T01:04:03.108Z,82.48
2023-01-30T01:05:06.859Z,82.21
2023-01-30T01:06:10.049Z,81.91
2023-01-30T01:07:15.333Z,82.05
2023-01-30T01:08:18.307Z,82.14
2023-01-30T01:09:21.478Z,82.09
2023-01-30T01:10:24.854Z,82.44
2023-01-30T01:11:27.834Z,82.60
2023-01-30T01:12:30.776Z,82.66
2023-01-30T01:13:33.946Z,82.84
2023-01-30T01:14:40.201Z,82.06
2023-01-30T01:15:43.531Z,82.11
2023-01-30T01:16:47.181Z,82.57
2023-01-30T01:17:50.995Z,82.57
2023-01-30T01:18:54.925Z,82.79
2023-01-30T01:19:57.923Z,82.61
2023-01-30T01:21:00.965Z,82.53
2023-01-30T01:22:03.934Z,82.87
2023-01-30T01:23:08.174Z,82.84
2023-01-30T01:24:14.213Z,83.00
2023-01-30T01:25:17.457Z,83.01
2023-01-30T01:26:21.485Z,82.92
2023-01-30T01:27:24.513Z,83.61
2023-01-30T01:28:27.562Z,83.60
2023-01-30T01:29:30.643Z,83.45
2023-01-30T01:30:33.604Z,83.47
2023-01-30T01:31:36.673Z,83.52
2023-01-30T01:32:39.716Z,83.75
2023-01-30T01:33:43.376Z,84.16
2023-01-30T01:34:47.088Z,83.83
2023-01-30T01:35:50.264Z,83.75
2023-01-30T01:36:54.917Z,84.03
2023-01-30T01:37:58.226Z,83.49
2023-01-30T01:39:01.581Z,83.78
2023-01-30T01:40:25.040Z,84.18
2023-01-30T01:41:28.062Z,83.84
2023-01-30T01:42:35.794Z,83.93
2023-01-30T01:44:02.065Z,83.66
2023-01-30T01:45:18.054Z,84.50
2023-01-30T01:46:28.827Z,85.16
2023-01-30T01:47:34.646Z,85.15
2023-01-30T01:48:52.206Z,84.86
2023-01-30T01:49:55.376Z,84.78
2023-01-30T01:51:06.283Z,84.80
2023-01-30T01:52:12.427Z,84.15
2023-01-30T01:53:19.238Z,84.11
2023-01-30T01:54:30.406Z,84.17
2023-01-30T01:55:34.047Z,84.90
2023-01-30T01:56:43.506Z,84.30
2023-01-30T01:57:53.049Z,84.46
2023-01-30T01:59:00.111Z,84.42
2023-01-30T02:00:13.340Z,85.01
2023-01-30T02:01:16.764Z,85.24
2023-01-30T02:02:20.977Z,85.07
2023-01-30T02:03:26.827Z,85.09
2023-01-30T02:04:51.069Z,84.78
2023-01-30T02:05:59.529Z,85.31
2023-01-30T02:07:03.007Z,84.66
2023-01-30T02:08:16.328Z,84.48
2023-01-30T02:09:19.554Z,84.32
2023-01-30T02:10:27.504Z,84.52
2023-01-30T02:11:39.665Z,85.09
2023-01-30T02:12:44.036Z,84.70
2023-01-30T02:13:47.903Z,84.40
2023-01-30T02:14:54.395Z,84.05
2023-01-30T02:16:02.512Z,83.99
2023-01-30T02:17:05.651Z,84.12
2023-01-30T02:18:08.974Z,84.71
2023-01-30T02:19:55.616Z,84.64
2023-01-30T02:21:06.967Z,84.05
2023-01-30T02:22:44.661Z,84.35
2023-01-30T02:24:21.515Z,85.67
2023-01-30T02:25:34.231Z,85.19
2023-01-30T02:27:08.159Z,85.13
2023-01-30T02:28:29.537Z,85.23
2023-01-30T02:29:59.090Z,85.17
2023-01-30T02:31:20.032Z,84.69
2023-01-30T02:32:31.750Z,84.70
2023-01-30T02:33:46.103Z,85.83
2023-01-30T02:35:22.750Z,86.10
2023-01-30T02:37:03.343Z,85.53
2023-01-30T02:38:45.561Z,86.45
2023-01-30T02:40:00.757Z,86.42
2023-01-30T02:41:28.626Z,86.00
2023-01-30T02:42:58.500Z,86.24
2023-01-30T02:44:17.429Z,85.90
2023-01-30T02:45:33.108Z,85.48
2023-01-30T02:47:00.904Z,85.24
2023-01-30T02:48:09.017Z,85.13
2023-01-30T02:49:37.228Z,85.40
2023-01-30T02:51:29.703Z,85.12
2023-01-30T02:52:34.569Z,85.67
2023-01-30T02:53:38.397Z,85.25
2023-01-30T02:54:41.661Z,85.44
2023-01-30T02:55:44.751Z,85.89
2023-01-30T02:56:53.482Z,85.66
2023-01-30T02:57:56.989Z,85.25
2023-01-30T02:59:06.338Z,84.86
2023-01-30T03:00:13.988Z,85.25
2023-01-30T03:01:46.340Z,85.19
2023-01-30T03:03:16.081Z,85.02
2023-01-30T03:04:29.866Z,85.19
2023-01-30T03:06:12.650Z,85.88
2023-01-30T03:07:46.115Z,85.63
2023-01-30T03:08:51.868Z,85.46
2023-01-30T03:10:15.506Z,86.31
2023-01-30T03:11:24.702Z,86.47
2023-01-30T03:13:06.342Z,86.23
2023-01-30T03:14:23.998Z,85.51
2023-01-30T03:15:34.296Z,85.57
2023-01-30T03:16:41.429Z,85.80
2023-01-30T03:17:46.897Z,86.32
2023-01-30T03:18:50.318Z,86.34
2023-01-30T03:19:55.206Z,86.68
2023-01-30T03:21:05.760Z,86.99
2023-01-30T03:22:09.165Z,87.33
2023-01-30T03:23:12.529Z,88.12
2023-01-30T03:24:15.598Z,87.83
2023-01-30T03:25:22.601Z,88.07
2023-01-30T03:26:31.334Z,88.30
2023-01-30T03:27:35.576Z,88.56
2023-01-30T03:28:38.886Z,88.27
2023-01-30T03:29:42.129Z,88.60
2023-01-30T03:30:45.192Z,88.95
2023-01-30T03:31:48.160Z,89.10
2023-01-30T03:32:51.085Z,88.55
2023-01-30T03:33:53.998Z,88.30
2023-01-30T03:34:57.257Z,87.67
2023-01-30T03:36:00.342Z,87.36
2023-01-30T03:37:05.167Z,87.38
2023-01-30T03:38:08.581Z,87.32
2023-01-30T03:39:11.624Z,87.36
2023-01-30T03:40:17.296Z,87.61
2023-01-30T03:41:20.452Z,87.62
2023-01-30T03:42:23.541Z,87.76
2023-01-30T03:43:26.513Z,87.22
2023-01-30T03:44:29.425Z,86.22
2023-01-30T03:45:32.440Z,87.08
2023-01-30T03:46:35.538Z,87.25
2023-01-30T03:47:38.414Z,87.62
2023-01-30T03:48:41.465Z,87.98
2023-01-30T03:49:44.578Z,87.94
2023-01-30T03:50:48.178Z,88.21
2023-01-30T03:51:51.101Z,88.65
2023-01-30T03:52:54.423Z,88.67
2023-01-30T03:53:57.326Z,88.39
2023-01-30T03:55:00.217Z,88.46
2023-01-30T03:56:03.383Z,88.58
2023-01-30T03:57:06.489Z,88.73
2023-01-30T03:58:09.544Z,88.11
2023-01-30T03:59:12.853Z,87.92
2023-01-30T04:00:16.422Z,87.88
2023-01-30T04:01:20.121Z,87.28
2023-01-30T04:02:23.656Z,87.31
2023-01-30T04:03:26.685Z,86.33
2023-01-30T04:04:29.735Z,86.18
2023-01-30T04:05:32.629Z,86.31
2023-01-30T04:06:36.664Z,86.14
2023-01-30T04:07:39.781Z,85.85
2023-01-30T04:08:42.747Z,85.54
2023-01-30T04:09:45.789Z,85.88
2023-01-30T04:10:48.718Z,85.92
2023-01-30T04:11:51.586Z,85.88
2023-01-30T04:12:54.624Z,85.73
2023-01-30T04:13:57.505Z,85.37
2023-01-30T04:15:00.445Z,84.87
2023-01-30T04:16:20.153Z,85.70
2023-01-30T04:17:23.340Z,86.20
2023-01-30T04:18:26.706Z,86.40
2023-01-30T04:19:29.827Z,85.93
2023-01-30T04:20:32.846Z,86.07
2023-01-30T04:21:35.844Z,86.23
2023-01-30T04:22:38.848Z,85.91
2023-01-30T04:23:42.564Z,85.76
2023-01-30T04:24:45.614Z,86.13
2023-01-30T04:25:48.858Z,86.64
2023-01-30T04:26:56.254Z,86.82
2023-01-30T04:27:59.309Z,86.84
2023-01-30T04:29:02.447Z,85.94
2023-01-30T04:30:07.162Z,85.17
2023-01-30T04:31:11.208Z,85.76
2023-01-30T04:32:14.179Z,86.34
2023-01-30T04:33:17.120Z,86.35
2023-01-30T04:34:20.081Z,86.47
2023-01-30T04:35:26.173Z,86.79
2023-01-30T04:36:32.340Z,87.00
2023-01-30T04:37:35.354Z,86.76
2023-01-30T04:38:38.671Z,86.59
2023-01-30T04:39:41.588Z,86.38
2023-01-30T04:40:49.335Z,86.39
2023-01-30T04:41:52.300Z,86.85
2023-01-30T04:42:55.250Z,86.67
2023-01-30T04:43:58.199Z,86.04
2023-01-30T04:45:01.216Z,85.84
2023-01-30T04:46:04.390Z,86.30
2023-01-30T04:47:07.432Z,86.72
2023-01-30T04:48:10.742Z,86.63
2023-01-30T04:49:13.890Z,86.46
2023-01-30T04:50:16.945Z,86.63
2023-01-30T04:51:19.865Z,87.44
2023-01-30T04:52:22.943Z,87.69
2023-01-30T04:53:26.342Z,87.65
2023-01-30T04:54:29.379Z,86.84
2023-01-30T04:55:32.976Z,86.98
2023-01-30T04:56:35.990Z,87.49
2023-01-30T04:57:39.188Z,87.77
2023-01-30T04:58:42.267Z,88.28
2023-01-30T04:59:45.181Z,87.59
2023-01-30T05:00:49.028Z,87.73
2023-01-30T05:01:52.408Z,87.82
2023-01-30T05:02:58.740Z,88.49
2023-01-30T05:04:02.674Z,88.93
2023-01-30T05:05:06.127Z,89.80
2023-01-30T05:06:09.181Z,90.71
2023-01-30T05:07:12.155Z,91.07
2023-01-30T05:08:16.278Z,90.74
2023-01-30T05:09:19.347Z,90.09
2023-01-30T05:10:22.767Z,90.21
2023-01-30T05:11:28.413Z,90.17
2023-01-30T05:12:31.462Z,90.51
2023-01-30T05:13:34.471Z,89.97
2023-01-30T05:14:41.659Z,89.66
2023-01-30T05:15:45.547Z,89.60
2023-01-30T05:16:49.042Z,89.98
2023-01-30T05:17:51.990Z,89.98
2023-01-30T05:18:55.119Z,89.71
2023-01-30T05:19:58.094Z,89.66
2023-01-30T05:21:13.220Z,89.54
2023-01-30T05:22:16.263Z,89.62
2023-01-30T05:23:20.165Z,89.45
2023-01-30T05:24:23.182Z,89.13
2023-01-30T05:25:26.111Z,88.98
2023-01-30T05:26:29.092Z,88.74
2023-01-30T05:27:32.155Z,88.75
2023-01-30T05:28:35.308Z,88.92
2023-01-30T05:29:38.260Z,88.75
2023-01-30T05:30:43.250Z,88.57
2023-01-30T05:31:46.903Z,87.84
2023-01-30T05:32:49.866Z,87.67
2023-01-30T05:33:55.051Z,87.92
2023-01-30T05:34:58.278Z,87.89
2023-01-30T05:36:01.871Z,88.25
2023-01-30T05:37:05.806Z,89.09
2023-01-30T05:38:09.098Z,89.08
2023-01-30T05:39:12.068Z,88.34
2023-01-30T05:40:18.302Z,87.97
2023-01-30T05:41:21.400Z,88.26
2023-01-30T05:42:24.690Z,88.18
2023-01-30T05:43:27.994Z,88.24
2023-01-30T05:44:30.936Z,88.45
2023-01-30T05:45:33.877Z,88.64
2023-01-30T05:46:36.835Z,88.58
2023-01-30T05:47:40.154Z,88.46
2023-01-30T05:48:43.198Z,88.47
2023-01-30T05:49:46.129Z,88.43
2023-01-30T05:50:54.700Z,88.54
2023-01-30T05:51:57.838Z,88.40
2023-01-30T05:53:01.104Z,88.18
2023-01-30T05:54:04.336Z,88.51
2023-01-30T05:55:07.735Z,88.85
2023-01-30T05:56:10.859Z,88.83
2023-01-30T05:57:13.862Z,88.98
2023-01-30T05:58:16.815Z,88.40
2023-01-30T05:59:19.841Z,88.40
2023-01-30T06:00:23.250Z,88.50
2023-01-30T06:01:27.690Z,88.50
2023-01-30T06:02:31.622Z,88.49
2023-01-30T06:03:34.673Z,88.48
2023-01-30T06:04:37.843Z,88.54
2023-01-30T06:05:40.897Z,88.40
2023-01-30T06:06:43.839Z,88.27
2023-01-30T06:07:46.877Z,88.11
2023-01-30T06:08:54.625Z,88.03
2023-01-30T06:09:57.682Z,88.07
2023-01-30T06:11:06.554Z,88.66
2023-01-30T06:12:09.590Z,89.05
2023-01-30T06:13:12.625Z,89.10
2023-01-30T06:14:15.583Z,88.54
2023-01-30T06:15:18.891Z,88.91
2023-01-30T06:16:22.283Z,90.10
2023-01-30T06:17:25.432Z,89.71
2023-01-30T06:18:28.819Z,89.39
2023-01-30T06:19:32.029Z,90.22
2023-01-30T06:20:34.940Z,90.17
2023-01-30T06:21:37.853Z,90.69
2023-01-30T06:22:40.863Z,90.97
2023-01-30T06:23:44.183Z,91.52
2023-01-30T06:24:47.057Z,91.44
2023-01-30T06:25:52.368Z,90.78
2023-01-30T06:26:55.505Z,90.56
2023-01-30T06:27:58.474Z,90.32
2023-01-30T06:29:02.002Z,90.10
2023-01-30T06:30:05.586Z,89.67
2023-01-30T06:31:09.088Z,89.25
2023-01-30T06:32:12.039Z,88.93
2023-01-30T06:33:15.187Z,89.84
2023-01-30T06:34:18.169Z,89.63
2023-01-30T06:35:24.222Z,89.67
2023-01-30T06:36:27.214Z,89.83
2023-01-30T06:37:30.123Z,89.75
2023-01-30T06:38:33.124Z,90.28
2023-01-30T06:39:36.011Z,89.88
2023-01-30T06:40:39.954Z,89.98
2023-01-30T06:41:42.926Z,91.13
2023-01-30T06:42:49.846Z,90.82
2023-01-30T06:43:52.877Z,91.05
2023-01-30T06:44:59.327Z,91.22
2023-01-30T06:46:02.280Z,91.16
2023-01-30T06:47:09.057Z,90.91
2023-01-30T06:48:12.135Z,90.49
2023-01-30T06:49:15.026Z,89.89
2023-01-30T06:50:19.711Z,89.60
2023-01-30T06:51:22.717Z,89.55
2023-01-30T06:52:25.668Z,90.45
2023-01-30T06:53:31.031Z,90.12
2023-01-30T06:54:40.283Z,89.41
2023-01-30T06:55:43.232Z,87.65
2023-01-30T06:56:46.126Z,87.97
2023-01-30T06:57:49.615Z,89.07
2023-01-30T06:58:52.635Z,89.30
2023-01-30T06:59:55.526Z,88.61
2023-01-30T07:00:59.318Z,87.82
2023-01-30T07:02:02.238Z,88.05
2023-01-30T07:03:05.378Z,87.33
2023-01-30T07:04:08.791Z,87.75
2023-01-30T07:05:14.019Z,87.28
2023-01-30T07:06:17.111Z,86.91
2023-01-30T07:07:19.969Z,86.91
2023-01-30T07:08:24.336Z,87.19
2023-01-30T07:09:27.437Z,87.01
2023-01-30T07:10:32.664Z,86.70
2023-01-30T07:11:35.532Z,86.57
2023-01-30T07:12:38.848Z,86.29
2023-01-30T07:13:41.702Z,85.67
2023-01-30T07:14:44.755Z,85.47
2023-01-30T07:15:47.595Z,85.12
2023-01-30T07:16:50.655Z,85.44
2023-01-30T07:17:53.654Z,86.37
2023-01-30T07:18:59.785Z,86.69
2023-01-30T07:20:02.645Z,86.32
2023-01-30T07:21:05.755Z,85.83
2023-01-30T07:22:08.777Z,85.43
2023-01-30T07:23:12.062Z,85.93
2023-01-30T07:24:15.140Z,85.52
2023-01-30T07:25:19.267Z,85.62
2023-01-30T07:26:22.562Z,85.04
2023-01-30T07:27:25.740Z,85.19
2023-01-30T07:28:28.658Z,84.43
2023-01-30T07:29:31.701Z,84.14
2023-01-30T07:30:36.358Z,83.62
2023-01-30T07:31:39.560Z,84.93
2023-01-30T07:32:42.644Z,85.27
2023-01-30T07:33:45.600Z,85.39
2023-01-30T07:34:48.739Z,84.40
2023-01-30T07:35:51.735Z,83.79
2023-01-30T07:36:54.743Z,83.23
2023-01-30T07:37:58.279Z,82.95
2023-01-30T07:39:01.911Z,82.95
2023-01-30T07:40:05.300Z,83.69
2023-01-30T07:41:08.237Z,83.16
2023-01-30T07:42:11.391Z,83.07
2023-01-30T07:43:17.111Z,83.19
2023-01-30T07:44:20.163Z,82.78
2023-01-30T07:45:24.277Z,83.65
2023-01-30T07:46:28.036Z,84.18
2023-01-30T07:47:31.385Z,83.54
2023-01-30T07:48:34.485Z,83.17
2023-01-30T07:49:37.464Z,83.49
2023-01-30T07:50:40.681Z,83.00
2023-01-30T07:51:44.219Z,82.63
2023-01-30T07:52:47.231Z,83.16
2023-01-30T07:53:51.383Z,83.39
2023-01-30T07:54:54.398Z,83.16
2023-01-30T07:55:57.368Z,83.78
2023-01-30T07:57:00.453Z,84.52
2023-01-30T07:58:03.844Z,84.29
2023-01-30T07:59:06.862Z,83.34
2023-01-30T08:00:11.105Z,84.10
2023-01-30T08:01:14.317Z,83.55
2023-01-30T08:02:17.269Z,84.42
2023-01-30T08:03:21.757Z,83.16
2023-01-30T08:04:25.930Z,83.89
2023-01-30T08:05:29.308Z,83.75
2023-01-30T08:06:32.669Z,84.37
2023-01-30T08:07:35.605Z,84.19
2023-01-30T08:08:38.622Z,83.50
2023-01-30T08:09:43.287Z,83.93
2023-01-30T08:10:49.600Z,84.66
2023-01-30T08:11:52.691Z,85.24
2023-01-30T08:12:55.865Z,84.43
2023-01-30T08:14:02.496Z,83.64
2023-01-30T08:15:06.674Z,83.29
2023-01-30T08:16:09.800Z,83.82
2023-01-30T08:17:13.116Z,84.67
2023-01-30T08:18:16.315Z,84.42
2023-01-30T08:19:19.563Z,84.58
2023-01-30T08:20:22.894Z,84.93
2023-01-30T08:21:29.468Z,85.74
2023-01-30T08:22:32.640Z,85.38
2023-01-30T08:23:39.430Z,84.90
2023-01-30T08:24:42.591Z,85.27
2023-01-30T08:25:45.563Z,85.42
2023-01-30T08:26:49.750Z,85.17
2023-01-30T08:27:52.913Z,84.72
2023-01-30T08:28:56.302Z,84.26
2023-01-30T08:29:59.190Z,83.34
2023-01-30T08:31:06.173Z,83.43
2023-01-30T08:32:09.272Z,83.50
2023-01-30T08:33:12.333Z,84.05
2023-01-30T08:34:15.326Z,84.47
2023-01-30T08:35:18.590Z,84.27
2023-01-30T08:36:21.550Z,83.69
2023-01-30T08:37:24.888Z,83.34
2023-01-30T08:38:28.026Z,83.58
2023-01-30T08:39:31.190Z,82.91
2023-01-30T08:40:34.192Z,82.71
2023-01-30T08:41:37.087Z,83.61
2023-01-30T08:42:40.285Z,83.13
2023-01-30T08:43:43.260Z,82.63
2023-01-30T08:44:47.295Z,83.58
2023-01-30T08:45:54.226Z,83.47
2023-01-30T08:46:57.182Z,82.88
2023-01-30T08:48:01.494Z,83.04
2023-01-30T08:49:05.628Z,83.67
2023-01-30T08:50:09.449Z,84.17
2023-01-30T08:51:12.691Z,83.89
2023-01-30T08:52:15.625Z,81.47
2023-01-30T08:53:18.510Z,81.95
2023-01-30T08:54:21.471Z,81.44
2023-01-30T08:55:24.592Z,82.14
2023-01-30T08:56:27.529Z,81.60
2023-01-30T08:57:33.046Z,82.02
2023-01-30T08:58:36.202Z,81.71
2023-01-30T08:59:39.173Z,80.60
2023-01-30T09:00:45.580Z,80.78
2023-01-30T09:01:49.928Z,82.11
2023-01-30T09:02:57.271Z,82.48
2023-01-30T09:04:00.315Z,82.49
2023-01-30T09:05:03.785Z,81.59
2023-01-30T09:06:06.910Z,81.88
2023-01-30T09:07:09.906Z,81.95
2023-01-30T09:08:14.230Z,81.62
2023-01-30T09:09:17.511Z,80.78
2023-01-30T09:10:20.929Z,81.60
2023-01-30T09:11:24.243Z,82.28
2023-01-30T09:12:28.023Z,82.56
2023-01-30T09:13:32.007Z,82.97
2023-01-30T09:14:35.024Z,82.37
2023-01-30T09:15:38.046Z,82.58
2023-01-30T09:16:41.105Z,82.79
2023-01-30T09:17:45.116Z,83.50
2023-01-30T09:18:48.186Z,83.12
2023-01-30T09:19:51.231Z,82.60
2023-01-30T09:21:03.238Z,82.84
2023-01-30T09:22:10.229Z,82.46
2023-01-30T09:23:13.375Z,82.57
2023-01-30T09:24:16.513Z,83.43
2023-01-30T09:25:19.421Z,83.35
2023-01-30T09:26:22.496Z,83.66
2023-01-30T09:27:25.563Z,83.12
2023-01-30T09:28:28.625Z,83.22
2023-01-30T09:29:31.716Z,82.64
2023-01-30T09:30:35.634Z,82.23
2023-01-30T09:31:39.154Z,82.43
2023-01-30T09:32:42.751Z,82.98
2023-01-30T09:33:45.705Z,84.16
2023-01-30T09:34:48.798Z,84.45
2023-01-30T09:35:51.868Z,84.08
2023-01-30T09:36:56.566Z,84.22
2023-01-30T09:37:59.572Z,84.73
2023-01-30T09:39:04.753Z,84.72
2023-01-30T09:40:14.464Z,84.46
2023-01-30T09:41:44.958Z,84.42
2023-01-30T09:42:56.840Z,84.99
2023-01-30T09:44:25.120Z,85.46
2023-01-30T09:45:38.480Z,84.85
2023-01-30T09:47:05.879Z,84.70
2023-01-30T09:48:23.725Z,84.55
2023-01-30T09:49:52.435Z,85.00
2023-01-30T09:51:11.996Z,84.38
2023-01-30T09:52:51.464Z,84.77
2023-01-30T09:54:22.210Z,86.02
2023-01-30T09:55:30.589Z,85.69
2023-01-30T09:56:33.689Z,86.30
2023-01-30T09:57:36.818Z,86.34
2023-01-30T09:58:49.487Z,86.76
2023-01-30T10:00:25.165Z,86.67
2023-01-30T10:01:37.598Z,86.43
2023-01-30T10:03:02.408Z,85.79
2023-01-30T10:04:23.674Z,85.73
2023-01-30T10:05:37.447Z,85.69
2023-01-30T10:06:49.275Z,85.59
2023-01-30T10:08:07.054Z,85.43
2023-01-30T10:09:30.152Z,85.34
2023-01-30T10:10:42.036Z,85.74
2023-01-30T10:12:10.631Z,85.39
2023-01-30T10:13:42.303Z,84.88
2023-01-30T10:15:01.396Z,83.94
2023-01-30T10:16:43.018Z,83.69
2023-01-30T10:17:46.086Z,82.40
2023-01-30T10:19:10.750Z,80.74
2023-01-30T10:20:33.332Z,79.24
2023-01-30T10:22:29.875Z,79.72
2023-01-30T10:24:04.062Z,81.16
2023-01-30T10:25:30.466Z,80.67
2023-01-30T10:26:34.204Z,80.07
2023-01-30T10:27:43.001Z,80.67
2023-01-30T10:29:12.327Z,81.64
2023-01-30T10:30:17.541Z,80.99
2023-01-30T10:31:26.820Z,80.48
2023-01-30T10:32:57.666Z,80.67
2023-01-30T10:34:29.955Z,81.61
2023-01-30T10:35:39.803Z,82.56
2023-01-30T10:36:59.831Z,83.51
2023-01-30T10:38:27.144Z,82.26
2023-01-30T10:39:30.388Z,80.88
2023-01-30T10:40:43.069Z,82.15
2023-01-30T10:42:02.825Z,82.88
2023-01-30T10:43:24.952Z,83.50
2023-01-30T10:44:28.013Z,83.09
2023-01-30T10:45:41.222Z,82.61
2023-01-30T10:46:49.987Z,82.34
2023-01-30T10:48:06.696Z,81.97
2023-01-30T10:49:19.914Z,81.79
2023-01-30T10:51:06.261Z,81.46
2023-01-30T10:52:30.426Z,82.07
2023-01-30T10:53:45.534Z,82.67
2023-01-30T10:54:58.391Z,82.37
2023-01-30T10:56:06.657Z,82.21
2023-01-30T10:57:43.982Z,82.81
2023-01-30T10:59:19.764Z,82.12
2023-01-30T11:00:34.491Z,82.84
2023-01-30T11:01:45.417Z,83.14
2023-01-30T11:03:15.943Z,82.93
2023-01-30T11:04:36.718Z,84.10
2023-01-30T11:05:46.071Z,83.93
2023-01-30T11:06:53.182Z,83.67
2023-01-30T11:07:56.101Z,83.76
2023-01-30T11:08:58.988Z,82.98
2023-01-30T11:10:02.314Z,82.68
2023-01-30T11:11:23.855Z,82.91
2023-01-30T11:12:27.202Z,83.74
2023-01-30T11:13:34.443Z,83.44
2023-01-30T11:14:58.962Z,82.93
2023-01-30T11:16:08.779Z,82.92
2023-01-30T11:17:17.146Z,83.39
2023-01-30T11:19:06.657Z,83.17
2023-01-30T11:19:45.339Z,82.77
2023-01-30T11:21:00.982Z,83.40
2023-01-30T11:22:06.232Z,83.14
2023-01-30T11:23:43.457Z,83.16
2023-01-30T11:24:47.196Z,83.11
2023-01-30T11:26:10.169Z,83.42
2023-01-30T11:27:22.446Z,83.89
2023-01-30T11:28:26.940Z,83.81
2023-01-30T11:29:33.056Z,83.02
2023-01-30T11:30:37.259Z,82.61
2023-01-30T11:31:41.918Z,82.60
2023-01-30T11:32:49.261Z,82.95
2023-01-30T11:34:04.121Z,81.92
2023-01-30T11:35:06.948Z,82.15
2023-01-30T11:36:31.033Z,82.39
2023-01-30T11:37:39.769Z,83.39
2023-01-30T11:38:56.975Z,82.43
2023-01-30T11:39:59.968Z,82.27
2023-01-30T11:41:19.991Z,82.48
2023-01-30T11:42:30.139Z,83.16
2023-01-30T11:43:38.241Z,83.04
2023-01-30T11:44:42.858Z,82.67
2023-01-30T11:45:49.080Z,83.47
2023-01-30T11:46:52.900Z,83.41
2023-01-30T11:48:06.891Z,82.92
2023-01-30T11:49:47.876Z,82.04
2023-01-30T11:50:50.123Z,82.07
2023-01-30T11:51:54.836Z,83.18
2023-01-30T11:53:03.134Z,83.49
2023-01-30T11:54:18.388Z,82.31
2023-01-30T11:55:22.029Z,82.12
2023-01-30T11:56:53.233Z,81.94
2023-01-30T11:57:59.474Z,82.55
2023-01-30T11:59:16.515Z,83.19
2023-01-30T12:00:24.170Z,82.57
2023-01-30T12:01:30.493Z,81.87
2023-01-30T12:02:38.667Z,81.98
2023-01-30T12:03:54.040Z,82.34
2023-01-30T12:05:02.176Z,82.05
2023-01-30T12:06:06.837Z,82.50
2023-01-30T12:07:26.028Z,82.86
2023-01-30T12:08:42.981Z,82.93
2023-01-30T12:09:46.312Z,83.05
2023-01-30T12:10:54.321Z,82.39
2023-01-30T12:11:57.407Z,82.22
2023-01-30T12:13:26.252Z,82.81
2023-01-30T12:14:40.964Z,83.70
2023-01-30T12:15:45.784Z,83.92
2023-01-30T12:17:00.787Z,84.54
2023-01-30T12:18:23.701Z,84.70
2023-01-30T12:19:36.616Z,83.81
2023-01-30T12:20:53.393Z,83.72
2023-01-30T12:22:16.113Z,83.36
2023-01-30T12:23:28.053Z,82.31
2023-01-30T12:24:43.822Z,82.28
2023-01-30T12:26:00.295Z,82.49
2023-01-30T12:27:25.559Z,82.04
2023-01-30T12:28:47.136Z,83.02
2023-01-30T12:30:17.056Z,82.88
2023-01-30T12:31:46.803Z,83.07
2023-01-30T12:32:50.066Z,83.21
2023-01-30T12:33:55.589Z,82.18
2023-01-30T12:34:58.740Z,81.95
2023-01-30T12:36:24.456Z,82.52
2023-01-30T12:37:46.272Z,82.41
2023-01-30T12:39:02.280Z,82.65
2023-01-30T12:40:39.168Z,82.73
2023-01-30T12:42:11.951Z,81.73
2023-01-30T12:44:05.845Z,82.51
2023-01-30T12:45:24.821Z,82.70
2023-01-30T12:46:33.839Z,83.09
2023-01-30T12:47:56.262Z,82.69
2023-01-30T12:49:15.422Z,82.60
2023-01-30T12:50:30.218Z,82.34
2023-01-30T12:52:11.549Z,82.14
2023-01-30T12:53:29.854Z,81.94
2023-01-30T12:54:58.549Z,81.98
2023-01-30T12:56:35.442Z,82.15
2023-01-30T12:57:47.153Z,81.53
2023-01-30T12:59:13.124Z,81.97
2023-01-30T13:00:44.380Z,82.41
2023-01-30T13:02:19.676Z,82.70
2023-01-30T13:03:59.585Z,82.83
2023-01-30T13:05:27.379Z,82.22
2023-01-30T13:06:58.188Z,81.28
2023-01-30T13:08:25.743Z,81.89
2023-01-30T13:09:37.971Z,82.51
2023-01-30T13:10:51.073Z,82.38
2023-01-30T13:11:59.907Z,81.32
2023-01-30T13:13:27.277Z,81.31
2023-01-30T13:15:03.374Z,80.84
2023-01-30T13:16:14.384Z,81.24
2023-01-30T13:17:26.804Z,80.38
2023-01-30T13:18:58.146Z,80.76
2023-01-30T13:24:06.554Z,79.50
2023-01-30T13:29:47.592Z,80.06
2023-01-30T13:30:52.742Z,79.43
2023-01-30T13:31:59.733Z,79.14
2023-01-30T13:33:12.202Z,80.04
2023-01-30T13:34:48.878Z,79.87
2023-01-30T13:35:56.621Z,79.87
2023-01-30T13:37:13.951Z,79.68
2023-01-30T13:38:26.042Z,79.39
2023-01-30T13:39:47.361Z,79.76
2023-01-30T13:40:55.779Z,80.02
2023-01-30T13:42:02.898Z,79.61
2023-01-30T13:43:23.982Z,79.60
2023-01-30T13:44:31.123Z,79.62
2023-01-30T13:45:38.225Z,80.13
2023-01-30T13:46:41.963Z,80.76
2023-01-30T13:48:16.019Z,80.55
2023-01-30T13:49:42.143Z,84.12
2023-01-30T13:51:22.836Z,82.84
2023-01-30T13:52:42.351Z,80.79
2023-01-30T13:54:11.343Z,79.90
2023-01-30T13:55:31.431Z,82.80
2023-01-30T13:56:50.837Z,79.55
2023-01-30T13:58:00.911Z,79.14
2023-01-30T13:59:36.074Z,79.56
2023-01-30T14:00:39.660Z,79.24
2023-01-30T14:02:04.369Z,78.95
2023-01-30T14:03:07.265Z,79.53
2023-01-30T14:04:39.819Z,79.37
2023-01-30T14:05:53.882Z,79.48
2023-01-30T14:07:16.588Z,79.69
2023-01-30T14:08:22.578Z,80.19
2023-01-30T14:09:30.242Z,80.90
2023-01-30T14:10:34.945Z,80.59
2023-01-30T14:11:58.623Z,80.53
2023-01-30T14:14:36.873Z,80.78
2023-01-30T14:15:52.461Z,81.13
2023-01-30T14:17:17.820Z,81.36
2023-01-30T14:18:27.568Z,81.03
2023-01-30T14:19:39.115Z,81.80
2023-01-30T14:20:51.088Z,81.06
2023-01-30T14:22:00.149Z,80.70
2023-01-30T14:23:19.502Z,80.61
2023-01-30T14:24:27.671Z,80.54
2023-01-30T14:25:30.584Z,81.10
2023-01-30T14:26:48.918Z,81.48
2023-01-30T14:28:16.160Z,81.56
2023-01-30T14:29:46.064Z,81.95
2023-01-30T14:30:52.450Z,81.55
2023-01-30T14:31:55.669Z,81.10
2023-01-30T14:33:01.142Z,81.46
2023-01-30T14:34:24.072Z,81.90
2023-01-30T14:35:28.051Z,81.56
2023-01-30T14:36:35.272Z,82.09
2023-01-30T14:37:41.851Z,82.68
2023-01-30T14:38:57.985Z,83.43
2023-01-30T14:40:02.121Z,83.14
2023-01-30T14:41:05.626Z,83.38
2023-01-30T14:42:26.469Z,83.18
2023-01-30T14:43:41.840Z,83.49
2023-01-30T14:45:06.491Z,83.47
2023-01-30T14:46:19.871Z,84.20
2023-01-30T14:47:33.535Z,84.56
2023-01-30T14:48:55.154Z,84.45
2023-01-30T14:50:00.529Z,84.64
2023-01-30T14:51:16.355Z,83.90
2023-01-30T14:52:47.030Z,83.37
2023-01-30T14:53:54.916Z,83.92
2023-01-30T14:54:58.223Z,84.64
2023-01-30T14:56:04.046Z,85.11
2023-01-30T14:57:24.509Z,84.03
2023-01-30T14:58:27.867Z,83.91
2023-01-30T14:59:38.458Z,84.28